createdAt,value
2018-11-23T00:01:37.033Z,53.47
2018-11-23T00:07:40.861Z,52.97
2018-11-23T00:13:44.377Z,52.83
2018-11-23T00:19:47.925Z,51.47
2018-11-23T00:25:51.876Z,55.43
2018-11-23T00:31:55.521Z,55.07
2018-11-23T00:37:58.933Z,53.90
2018-11-23T00:44:02.434Z,52.00
2018-11-23T00:50:07.785Z,52.13
2018-11-23T00:56:11.231Z,56.73
2018-11-23T01:02:14.817Z,56.83
2018-11-23T01:08:18.270Z,55.07
2018-11-23T01:14:21.726Z,57.90
2018-11-23T01:20:28.974Z,60.23
2018-11-23T01:26:32.454Z,53.50
2018-11-23T01:32:35.868Z,53.97
2018-11-23T01:38:39.857Z,58.57
2018-11-23T01:44:49.197Z,51.80
2018-11-23T01:50:52.613Z,56.30
2018-11-23T01:56:56.115Z,52.73
2018-11-23T02:02:59.540Z,55.77
2018-11-23T02:09:03.220Z,51.63
2018-11-23T02:15:09.770Z,54.07
2018-11-23T02:21:13.172Z,54.17
2018-11-23T02:27:16.868Z,54.97
2018-11-23T02:33:20.448Z,54.17
2018-11-23T02:39:23.914Z,54.20
2018-11-23T02:45:27.346Z,52.97
2018-11-23T02:51:30.824Z,54.20
2018-11-23T02:57:34.269Z,54.13
2018-11-23T03:03:37.736Z,50.90
2018-11-23T03:09:41.152Z,54.60
2018-11-23T03:15:44.637Z,58.73
2018-11-23T03:21:48.144Z,56.57
2018-11-23T03:27:51.621Z,50.37
2018-11-23T03:33:55.562Z,52.10
2018-11-23T03:39:59.092Z,65.40
2018-11-23T03:46:02.618Z,55.43
2018-11-23T03:52:06.107Z,54.77
2018-11-23T03:58:09.538Z,58.70
2018-11-23T04:04:13.059Z,54.63
2018-11-23T04:10:17.009Z,59.77
2018-11-23T04:16:20.571Z,63.73
2018-11-23T04:22:23.999Z,64.30
2018-11-23T04:28:27.433Z,57.77
2018-11-23T04:34:30.894Z,51.63
2018-11-23T04:40:34.361Z,57.13
2018-11-23T04:46:38.673Z,54.13
2018-11-23T04:52:42.113Z,67.43
2018-11-23T04:58:45.563Z,67.77
2018-11-23T05:04:49.063Z,62.60
2018-11-23T05:10:52.511Z,58.73
2018-11-23T05:17:02.704Z,52.63
2018-11-23T05:23:06.156Z,52.60
2018-11-23T05:29:09.631Z,51.07
2018-11-23T05:35:14.121Z,54.73
2018-11-23T05:41:17.596Z,59.00
2018-11-23T05:47:21.153Z,57.17
2018-11-23T05:53:24.629Z,72.10
2018-11-23T05:59:28.834Z,62.50
2018-11-23T06:05:32.292Z,49.30
2018-11-23T06:11:35.947Z,56.83
2018-11-23T06:17:39.463Z,56.03
2018-11-23T06:23:42.951Z,54.47
2018-11-23T06:29:47.174Z,52.47
2018-11-23T06:35:50.623Z,61.93
2018-11-23T06:41:55.531Z,58.57
2018-11-23T06:47:59.260Z,57.23
2018-11-23T06:54:02.737Z,60.37
2018-11-23T07:00:08.952Z,73.30
2018-11-23T07:06:12.515Z,76.77
2018-11-23T07:12:16.015Z,61.67
2018-11-23T07:18:19.467Z,58.70
2018-11-23T07:24:22.925Z,61.37
2018-11-23T07:30:27.656Z,61.60
2018-11-23T07:36:31.121Z,67.10
2018-11-23T07:42:34.540Z,60.57
2018-11-23T07:48:38.099Z,59.77
2018-11-23T07:54:41.566Z,54.27
2018-11-23T08:00:44.989Z,59.47
2018-11-23T08:06:48.436Z,72.23
2018-11-23T08:12:52.326Z,62.97
2018-11-23T08:18:55.752Z,55.43
2018-11-23T08:24:59.226Z,55.93
2018-11-23T08:31:05.540Z,55.50
2018-11-23T08:37:08.990Z,59.50
2018-11-23T08:43:12.422Z,127.23
2018-11-23T08:49:15.936Z,59.67
2018-11-23T08:55:20.456Z,63.30
2018-11-23T09:01:23.914Z,60.83
2018-11-23T09:07:27.370Z,60.00
2018-11-23T09:13:30.834Z,62.47
2018-11-23T09:19:34.278Z,62.50
2018-11-23T09:25:37.717Z,64.27
2018-11-23T09:31:41.156Z,64.97
2018-11-23T09:37:45.671Z,58.43
2018-11-23T09:43:49.121Z,56.77
2018-11-23T09:49:52.709Z,55.37
2018-11-23T09:55:56.140Z,57.37
2018-11-23T10:01:59.773Z,55.00
2018-11-23T10:08:05.651Z,57.17
2018-11-23T10:14:09.087Z,53.93
2018-11-23T10:20:15.459Z,55.87
2018-11-23T10:26:18.961Z,58.20
2018-11-23T10:32:22.443Z,56.75
2018-11-23T10:38:25.896Z,58.98
2018-11-23T10:44:29.352Z,64.23
2018-11-23T10:50:34.399Z,51.98
2018-11-23T10:56:37.867Z,53.53
2018-11-23T11:02:43.536Z,49.50
2018-11-23T11:08:47.002Z,47.17
2018-11-23T11:14:50.515Z,45.55
2018-11-23T11:20:53.952Z,56.37
2018-11-23T11:26:57.376Z,55.28
2018-11-23T11:33:00.858Z,50.30
2018-11-23T11:39:07.163Z,52.23
2018-11-23T11:45:14.988Z,48.75
2018-11-23T11:51:18.430Z,48.02
2018-11-23T11:57:21.939Z,44.23
2018-11-23T12:03:26.192Z,41.02
2018-11-23T12:09:29.650Z,42.03
2018-11-23T12:15:33.106Z,73.15
2018-11-23T12:21:36.544Z,44.75
2018-11-23T12:27:40.136Z,43.23
2018-11-23T12:33:43.592Z,43.52
2018-11-23T12:39:47.086Z,37.42
2018-11-23T12:45:50.514Z,41.18
2018-11-23T12:51:54.161Z,39.45
2018-11-23T12:57:57.629Z,45.38
2018-11-23T13:04:01.214Z,37.67
2018-11-23T13:10:04.868Z,40.05
2018-11-23T13:16:08.303Z,37.48
2018-11-23T13:22:11.738Z,37.75
2018-11-23T13:28:15.257Z,35.65
2018-11-23T13:34:18.707Z,38.30
2018-11-23T13:40:23.506Z,42.55
2018-11-23T13:46:27.007Z,36.30
2018-11-23T13:52:30.513Z,37.70
2018-11-23T13:58:33.967Z,35.60
2018-11-23T14:04:38.028Z,37.15
2018-11-23T14:10:41.455Z,35.65
2018-11-23T14:16:44.917Z,37.50
2018-11-23T14:22:48.459Z,37.48
2018-11-23T14:28:52.125Z,40.88
2018-11-23T14:34:55.600Z,39.13
2018-11-23T14:40:59.021Z,38.48
2018-11-23T14:47:02.492Z,39.25
2018-11-23T14:53:05.947Z,43.87
2018-11-23T14:59:09.380Z,42.35
2018-11-23T15:05:12.914Z,45.12
2018-11-23T15:11:16.478Z,45.75
2018-11-23T15:17:20.177Z,44.50
2018-11-23T15:23:23.656Z,47.73
2018-11-23T15:29:27.134Z,42.13
2018-11-23T15:35:32.025Z,45.30
2018-11-23T15:41:35.496Z,43.23
2018-11-23T15:47:39.094Z,44.80
2018-11-23T15:53:42.542Z,49.85
2018-11-23T15:59:45.992Z,48.63
2018-11-23T16:05:49.559Z,48.73
2018-11-23T16:11:53.046Z,49.30
2018-11-23T16:17:57.054Z,45.98
2018-11-23T16:24:00.546Z,47.95
2018-11-23T16:30:05.992Z,48.08
2018-11-23T16:36:09.568Z,48.40
2018-11-23T16:42:13.149Z,63.80
2018-11-23T16:48:17.328Z,48.60
2018-11-23T16:54:20.767Z,51.48
2018-11-23T17:00:29.841Z,57.35
2018-11-23T17:06:33.358Z,57.30
2018-11-23T17:12:37.015Z,52.47
2018-11-23T17:18:40.554Z,60.03
2018-11-23T17:24:44.053Z,57.35
2018-11-23T17:30:47.495Z,46.35
2018-11-23T17:36:50.941Z,45.08
2018-11-23T17:42:54.657Z,48.47
2018-11-23T17:48:58.363Z,45.17
2018-11-23T17:55:01.980Z,44.00
2018-11-23T18:01:06.313Z,41.15
2018-11-23T18:07:09.833Z,42.07
2018-11-23T18:13:13.405Z,44.55
2018-11-23T18:19:17.200Z,40.63
2018-11-23T18:25:22.065Z,41.70
2018-11-23T18:31:25.559Z,42.98
2018-11-23T18:37:29.058Z,38.67
2018-11-23T18:43:32.551Z,42.03
2018-11-23T18:49:36.036Z,38.50
2018-11-23T18:55:39.551Z,38.80
2018-11-23T19:01:43.084Z,38.17
2018-11-23T19:07:46.628Z,40.60
